createdAt,value
2019-01-23T00:00:40.979Z,32.37
2019-01-23T00:01:30.940Z,29.72
2019-01-23T00:02:06.610Z,29.37
2019-01-23T00:02:42.087Z,30.63
2019-01-23T00:03:17.804Z,30.93
2019-01-23T00:03:53.255Z,31.43
2019-01-23T00:04:28.680Z,32.13
2019-01-23T00:05:04.393Z,31.53
2019-01-23T00:05:39.821Z,31.97
2019-01-23T00:06:15.336Z,30.87
2019-01-23T00:06:51.067Z,32.23
2019-01-23T00:07:26.506Z,31.63
2019-01-23T00:08:01.979Z,31.87
2019-01-23T00:08:37.411Z,31.83
2019-01-23T00:09:13.102Z,31.40
2019-01-23T00:09:48.811Z,32.13
2019-01-23T00:10:24.642Z,32.20
2019-01-23T00:11:00.644Z,31.62
2019-01-23T00:11:36.631Z,31.63
2019-01-23T00:12:12.092Z,31.83
2019-01-23T00:12:47.525Z,31.20
2019-01-23T00:13:23.010Z,31.70
2019-01-23T00:13:58.428Z,33.63
2019-01-23T00:14:33.854Z,29.43
2019-01-23T00:15:09.974Z,30.90
2019-01-23T00:15:46.318Z,31.47
2019-01-23T00:16:21.745Z,30.33
2019-01-23T00:16:57.486Z,30.63
2019-01-23T00:17:32.920Z,30.80
2019-01-23T00:18:08.699Z,33.27
2019-01-23T00:18:44.158Z,30.57
2019-01-23T00:19:19.582Z,31.80
2019-01-23T00:19:55.010Z,32.13
2019-01-23T00:20:30.715Z,30.77
2019-01-23T00:21:06.712Z,32.67
2019-01-23T00:21:42.445Z,32.17
2019-01-23T00:22:18.130Z,32.97
2019-01-23T00:22:53.807Z,30.67
2019-01-23T00:23:29.670Z,31.37
2019-01-23T00:24:05.300Z,30.20
2019-01-23T00:24:41.019Z,31.33
2019-01-23T00:25:16.796Z,31.20
2019-01-23T00:25:52.223Z,30.07
2019-01-23T00:26:27.915Z,30.90
2019-01-23T00:27:03.360Z,30.17
2019-01-23T00:27:39.090Z,30.43
2019-01-23T00:28:14.558Z,31.77
2019-01-23T00:28:49.996Z,29.67
2019-01-23T00:29:25.441Z,31.07
2019-01-23T00:30:01.204Z,29.87
2019-01-23T00:30:36.629Z,31.13
2019-01-23T00:31:12.062Z,29.80
2019-01-23T00:31:47.482Z,31.67
2019-01-23T00:32:22.909Z,31.60
2019-01-23T00:32:58.633Z,31.93
2019-01-23T00:33:34.107Z,30.47
2019-01-23T00:34:09.560Z,31.03
2019-01-23T00:34:45.006Z,29.87
2019-01-23T00:35:20.730Z,30.50
2019-01-23T00:35:56.182Z,30.23
2019-01-23T00:36:31.899Z,30.40
2019-01-23T00:37:07.655Z,31.23
2019-01-23T00:37:43.083Z,31.40
2019-01-23T00:38:19.814Z,30.93
2019-01-23T00:38:55.532Z,30.30
2019-01-23T00:39:30.975Z,30.20
2019-01-23T00:40:07.534Z,30.17
2019-01-23T00:40:42.984Z,31.73
2019-01-23T00:41:18.471Z,30.40
2019-01-23T00:41:53.905Z,31.37
2019-01-23T00:42:29.352Z,30.73
2019-01-23T00:43:05.117Z,30.73
2019-01-23T00:43:40.853Z,30.57
2019-01-23T00:44:16.280Z,30.20
2019-01-23T00:44:51.746Z,30.17
2019-01-23T00:45:27.189Z,29.83
2019-01-23T00:46:02.629Z,30.17
2019-01-23T00:46:38.139Z,30.27
2019-01-23T00:47:13.920Z,29.30
2019-01-23T00:47:49.770Z,29.20
2019-01-23T00:48:25.779Z,28.60
2019-01-23T00:49:01.230Z,30.67
2019-01-23T00:49:36.675Z,30.70
2019-01-23T00:50:13.305Z,29.73
2019-01-23T00:50:49.054Z,29.67
2019-01-23T00:51:24.501Z,31.07
2019-01-23T00:51:59.961Z,29.67
2019-01-23T00:52:35.394Z,31.03
2019-01-23T00:53:10.850Z,30.03
2019-01-23T00:53:46.329Z,28.37
2019-01-23T00:54:21.774Z,30.63
2019-01-23T00:54:57.216Z,28.00
2019-01-23T00:55:32.641Z,30.10
2019-01-23T00:56:08.687Z,30.33
2019-01-23T00:56:44.669Z,28.90
2019-01-23T00:57:20.113Z,30.20
2019-01-23T00:57:55.547Z,30.77
2019-01-23T00:58:31.343Z,28.90
2019-01-23T00:59:06.907Z,30.80
2019-01-23T00:59:42.589Z,30.33
2019-01-23T01:00:20.989Z,30.63
2019-01-23T01:00:56.407Z,27.00
2019-01-23T01:01:31.878Z,30.10
2019-01-23T01:02:07.867Z,28.33
2019-01-23T01:02:43.587Z,28.20
2019-01-23T01:03:19.337Z,30.47
2019-01-23T01:03:54.822Z,30.67
2019-01-23T01:04:30.248Z,30.10
2019-01-23T01:05:06.458Z,27.47
2019-01-23T01:05:41.897Z,29.37
2019-01-23T01:06:17.323Z,30.43
2019-01-23T01:06:53.297Z,29.87
2019-01-23T01:07:29.307Z,30.20
2019-01-23T01:08:05.150Z,29.23
2019-01-23T01:08:40.613Z,28.50
2019-01-23T01:09:16.054Z,30.03
2019-01-23T01:09:51.761Z,31.33
2019-01-23T01:10:27.753Z,28.77
2019-01-23T01:11:03.444Z,28.57
2019-01-23T01:11:38.866Z,28.10
2019-01-23T01:12:14.728Z,29.20
2019-01-23T01:12:50.165Z,29.97
2019-01-23T01:13:25.619Z,29.00
2019-01-23T01:14:01.109Z,29.60
2019-01-23T01:14:36.647Z,29.13
2019-01-23T01:15:13.544Z,30.03
2019-01-23T01:15:49.181Z,28.07
2019-01-23T01:16:24.630Z,28.83
2019-01-23T01:17:00.067Z,28.60
2019-01-23T01:17:35.513Z,28.63
2019-01-23T01:18:11.214Z,28.97
2019-01-23T01:18:46.963Z,28.70
2019-01-23T01:19:22.398Z,28.07
2019-01-23T01:19:57.829Z,29.17
2019-01-23T01:20:33.510Z,28.07
2019-01-23T01:21:08.996Z,28.53
2019-01-23T01:21:44.426Z,28.20
2019-01-23T01:22:19.872Z,28.70
2019-01-23T01:22:55.429Z,28.97
2019-01-23T01:23:31.152Z,28.10
2019-01-23T01:24:06.899Z,28.37
2019-01-23T01:24:42.324Z,28.77
2019-01-23T01:25:18.386Z,29.13
2019-01-23T01:25:53.851Z,30.13
2019-01-23T01:26:29.640Z,28.77
2019-01-23T01:27:05.550Z,29.97
2019-01-23T01:27:41.268Z,30.43
2019-01-23T01:28:17.004Z,29.70
2019-01-23T01:28:56.139Z,27.57
2019-01-23T01:29:30.069Z,27.50
2019-01-23T01:30:08.662Z,30.37
2019-01-23T01:30:44.161Z,28.03
2019-01-23T01:31:19.889Z,29.63
2019-01-23T01:31:55.421Z,29.63
2019-01-23T01:32:30.863Z,28.40
2019-01-23T01:33:06.339Z,28.63
2019-01-23T01:33:41.823Z,28.43
2019-01-23T01:34:17.508Z,29.47
2019-01-23T01:34:53.218Z,29.33
2019-01-23T01:35:28.668Z,29.83
2019-01-23T01:36:04.124Z,29.40
2019-01-23T01:36:39.922Z,29.37
2019-01-23T01:37:15.377Z,27.97
2019-01-23T01:37:51.062Z,28.50
2019-01-23T01:38:26.489Z,28.47
2019-01-23T01:39:01.947Z,30.40
2019-01-23T01:39:37.416Z,28.63
2019-01-23T01:40:13.967Z,29.00
2019-01-23T01:40:49.650Z,28.67
2019-01-23T01:41:25.094Z,27.40
2019-01-23T01:42:00.798Z,28.60
2019-01-23T01:42:36.250Z,28.10
2019-01-23T01:43:11.961Z,28.17
2019-01-23T01:43:47.430Z,28.43
2019-01-23T01:44:22.872Z,29.00
2019-01-23T01:44:58.304Z,28.07
2019-01-23T01:45:33.749Z,29.87
2019-01-23T01:46:09.282Z,29.17
2019-01-23T01:46:45.131Z,28.07
2019-01-23T01:47:20.525Z,28.67
2019-01-23T01:47:56.270Z,28.37
2019-01-23T01:48:31.695Z,28.17
2019-01-23T01:49:07.512Z,28.43
2019-01-23T01:49:42.957Z,29.33
2019-01-23T01:50:21.860Z,30.10
2019-01-23T01:50:57.577Z,28.00
2019-01-23T01:51:33.269Z,28.17
2019-01-23T01:52:08.709Z,27.80
2019-01-23T01:52:44.131Z,27.97
2019-01-23T01:53:19.561Z,27.60
2019-01-23T01:53:55.578Z,28.30
2019-01-23T01:54:31.267Z,29.13
2019-01-23T01:55:08.082Z,29.40
2019-01-23T01:55:43.834Z,29.35
2019-01-23T01:56:19.266Z,28.30
2019-01-23T01:56:55.253Z,29.40
2019-01-23T01:57:30.687Z,29.37
2019-01-23T01:58:10.016Z,28.93
2019-01-23T01:58:43.876Z,28.97
2019-01-23T01:59:19.916Z,28.50
2019-01-23T01:59:55.729Z,27.07
2019-01-23T02:00:31.447Z,28.70
2019-01-23T02:01:07.197Z,28.53
2019-01-23T02:01:42.921Z,27.60
2019-01-23T02:02:18.344Z,28.40
2019-01-23T02:02:53.778Z,28.30
2019-01-23T02:03:30.349Z,29.60
2019-01-23T02:04:05.945Z,27.93
2019-01-23T02:04:41.631Z,27.97
2019-01-23T02:05:17.843Z,28.47
2019-01-23T02:05:53.262Z,28.33
2019-01-23T02:06:28.711Z,28.87
2019-01-23T02:07:04.342Z,28.53
2019-01-23T02:07:40.033Z,29.70
2019-01-23T02:08:15.774Z,29.53
2019-01-23T02:08:51.278Z,27.77
2019-01-23T02:09:26.758Z,28.13
2019-01-23T02:10:02.445Z,29.13
2019-01-23T02:10:37.911Z,27.50
2019-01-23T02:11:13.360Z,28.47
2019-01-23T02:11:48.885Z,30.17
2019-01-23T02:12:24.331Z,29.60
2019-01-23T02:12:59.762Z,29.17
2019-01-23T02:13:35.195Z,28.23
2019-01-23T02:14:10.670Z,27.57
2019-01-23T02:14:46.123Z,27.73
2019-01-23T02:15:21.603Z,27.87
2019-01-23T02:15:57.623Z,28.50
2019-01-23T02:16:33.330Z,28.27
2019-01-23T02:17:08.879Z,27.93
2019-01-23T02:17:44.496Z,28.60
2019-01-23T02:18:19.939Z,29.37
2019-01-23T02:18:55.364Z,29.20
2019-01-23T02:19:30.848Z,28.43
2019-01-23T02:20:09.209Z,29.43
2019-01-23T02:20:44.666Z,28.73
2019-01-23T02:21:20.436Z,27.37
2019-01-23T02:21:55.874Z,28.60
2019-01-23T02:22:31.585Z,29.32
2019-01-23T02:23:07.026Z,29.07
2019-01-23T02:23:42.525Z,30.33
2019-01-23T02:24:18.325Z,30.03
2019-01-23T02:24:54.069Z,27.27
2019-01-23T02:25:29.501Z,28.93
2019-01-23T02:26:04.938Z,29.77
2019-01-23T02:26:40.392Z,28.57
2019-01-23T02:27:15.915Z,27.70
2019-01-23T02:27:51.608Z,28.73
2019-01-23T02:28:27.053Z,29.37
2019-01-23T02:29:09.320Z,28.60
2019-01-23T02:29:39.955Z,28.20
2019-01-23T02:30:17.027Z,29.33
2019-01-23T02:30:52.717Z,29.70
2019-01-23T02:31:28.467Z,28.57
2019-01-23T02:32:04.149Z,28.87
2019-01-23T02:32:39.594Z,28.57
2019-01-23T02:33:15.036Z,27.10
2019-01-23T02:33:50.501Z,28.87
2019-01-23T02:34:26.191Z,28.57
2019-01-23T02:35:01.726Z,29.53
2019-01-23T02:35:37.184Z,29.10
2019-01-23T02:36:12.716Z,28.53
2019-01-23T02:36:48.412Z,29.60
2019-01-23T02:37:23.841Z,29.80
2019-01-23T02:37:59.270Z,29.00
2019-01-23T02:38:34.708Z,28.27
2019-01-23T02:39:10.421Z,29.10
2019-01-23T02:39:45.897Z,28.20
2019-01-23T02:40:22.656Z,27.53
2019-01-23T02:40:58.705Z,27.93
2019-01-23T02:41:34.138Z,28.90
2019-01-23T02:42:09.837Z,27.27
2019-01-23T02:42:45.261Z,27.37
2019-01-23T02:43:20.688Z,26.43
2019-01-23T02:43:56.118Z,28.33
2019-01-23T02:44:31.549Z,29.90
2019-01-23T02:45:07.272Z,28.60
2019-01-23T02:45:42.727Z,28.17
2019-01-23T02:46:18.710Z,27.50
2019-01-23T02:46:54.410Z,26.20
2019-01-23T02:47:29.862Z,28.07
2019-01-23T02:48:05.941Z,27.80
2019-01-23T02:48:41.645Z,28.47
2019-01-23T02:49:17.343Z,28.57
2019-01-23T02:49:53.140Z,28.10
2019-01-23T02:50:28.610Z,27.70
2019-01-23T02:51:04.067Z,28.83
2019-01-23T02:51:39.551Z,28.00
2019-01-23T02:52:15.224Z,27.13
2019-01-23T02:52:50.636Z,27.20
2019-01-23T02:53:26.074Z,29.10
2019-01-23T02:54:01.519Z,29.60
2019-01-23T02:54:37.210Z,29.60
2019-01-23T02:55:12.703Z,28.90
2019-01-23T02:55:48.141Z,27.73
2019-01-23T02:56:23.854Z,28.50
2019-01-23T02:56:59.622Z,27.90
2019-01-23T02:57:35.064Z,28.10
2019-01-23T02:58:10.893Z,28.43
2019-01-23T02:58:46.353Z,28.93
2019-01-23T02:59:21.780Z,28.70
2019-01-23T02:59:57.244Z,28.23
2019-01-23T03:00:34.025Z,29.37
2019-01-23T03:01:09.634Z,26.97
2019-01-23T03:01:45.127Z,27.93
2019-01-23T03:02:20.536Z,28.23
2019-01-23T03:02:56.240Z,29.93
2019-01-23T03:03:31.994Z,28.07
2019-01-23T03:04:07.479Z,28.00
2019-01-23T03:04:42.984Z,29.37
2019-01-23T03:05:19.556Z,28.60
2019-01-23T03:05:54.967Z,29.97
2019-01-23T03:06:30.447Z,28.83
2019-01-23T03:07:05.928Z,27.93
2019-01-23T03:07:41.502Z,29.13
2019-01-23T03:08:16.958Z,27.43
2019-01-23T03:08:52.486Z,29.50
2019-01-23T03:09:27.928Z,27.57
2019-01-23T03:10:03.445Z,29.10
2019-01-23T03:10:38.988Z,28.77
2019-01-23T03:11:14.442Z,30.00
2019-01-23T03:11:50.447Z,27.87
2019-01-23T03:12:25.875Z,28.07
2019-01-23T03:13:01.637Z,28.13
2019-01-23T03:13:37.160Z,29.10
2019-01-23T03:14:12.897Z,28.83
2019-01-23T03:14:48.347Z,28.47
2019-01-23T03:15:24.076Z,28.50
2019-01-23T03:15:59.854Z,29.43
2019-01-23T03:16:35.550Z,27.13
2019-01-23T03:17:11.081Z,28.80
2019-01-23T03:17:46.591Z,29.17
2019-01-23T03:18:22.157Z,27.80
2019-01-23T03:18:57.594Z,28.60
2019-01-23T03:19:33.381Z,28.67
2019-01-23T03:20:11.040Z,29.40
2019-01-23T03:20:46.908Z,29.43
2019-01-23T03:21:22.955Z,28.50
2019-01-23T03:21:58.412Z,29.30
2019-01-23T03:22:33.949Z,27.60
2019-01-23T03:23:09.665Z,28.10
2019-01-23T03:23:45.253Z,29.87
2019-01-23T03:24:21.005Z,27.93
2019-01-23T03:24:57.023Z,31.27
2019-01-23T03:25:32.613Z,28.73
2019-01-23T03:26:08.481Z,29.30
2019-01-23T03:26:43.939Z,29.17
2019-01-23T03:27:19.362Z,28.53
2019-01-23T03:27:54.786Z,29.03
2019-01-23T03:28:30.228Z,26.63
2019-01-23T03:29:05.687Z,28.10
2019-01-23T03:29:41.569Z,27.50
2019-01-23T03:30:19.446Z,27.57
2019-01-23T03:30:54.924Z,28.37
2019-01-23T03:31:30.361Z,29.27
2019-01-23T03:32:05.923Z,29.30
2019-01-23T03:32:41.391Z,28.90
2019-01-23T03:33:16.854Z,29.23
2019-01-23T03:33:52.270Z,28.83
2019-01-23T03:34:28.260Z,29.20
2019-01-23T03:35:03.829Z,29.10
2019-01-23T03:35:39.375Z,28.70
2019-01-23T03:36:14.838Z,28.10
2019-01-23T03:36:50.534Z,28.63
2019-01-23T03:37:25.987Z,30.97
2019-01-23T03:38:01.432Z,28.03
2019-01-23T03:38:36.860Z,29.33
2019-01-23T03:39:12.635Z,28.73
2019-01-23T03:39:48.066Z,30.40
2019-01-23T03:40:23.576Z,28.13
2019-01-23T03:40:59.010Z,28.07
2019-01-23T03:41:35.001Z,29.57
2019-01-23T03:42:10.737Z,28.93
2019-01-23T03:42:46.175Z,29.07
2019-01-23T03:43:21.604Z,28.73
2019-01-23T03:43:57.049Z,28.80
2019-01-23T03:44:32.490Z,30.10
2019-01-23T03:45:09.523Z,26.77
2019-01-23T03:45:45.047Z,28.60
2019-01-23T03:46:20.481Z,28.53
2019-01-23T03:46:55.915Z,27.57
2019-01-23T03:47:31.355Z,29.37
2019-01-23T03:48:06.926Z,28.67
2019-01-23T03:48:42.465Z,27.57
2019-01-23T03:49:18.273Z,29.10
2019-01-23T03:49:53.694Z,27.90
2019-01-23T03:50:29.136Z,27.67
2019-01-23T03:51:04.604Z,29.07
2019-01-23T03:51:40.035Z,29.13
2019-01-23T03:52:15.666Z,29.30
2019-01-23T03:52:51.175Z,28.50
2019-01-23T03:53:26.612Z,29.27
2019-01-23T03:54:02.077Z,29.00
2019-01-23T03:54:37.572Z,29.77
2019-01-23T03:55:13.679Z,30.93
2019-01-23T03:55:49.135Z,29.73
2019-01-23T03:56:24.889Z,28.15
2019-01-23T03:57:00.453Z,28.00
2019-01-23T03:57:35.962Z,30.13
2019-01-23T03:58:11.719Z,29.17
2019-01-23T03:58:47.390Z,29.23
2019-01-23T03:59:23.076Z,28.83
2019-01-23T03:59:58.773Z,27.60
2019-01-23T04:00:34.206Z,30.57
2019-01-23T04:01:09.982Z,29.90
2019-01-23T04:01:45.710Z,27.80
2019-01-23T04:02:21.500Z,29.60
2019-01-23T04:02:57.188Z,29.03
2019-01-23T04:03:32.621Z,29.07
2019-01-23T04:04:08.112Z,29.40
2019-01-23T04:04:43.648Z,27.83
2019-01-23T04:05:19.092Z,28.33
2019-01-23T04:05:55.058Z,28.87
2019-01-23T04:06:30.494Z,28.87
2019-01-23T04:07:05.929Z,28.50
2019-01-23T04:07:41.484Z,28.87
2019-01-23T04:08:16.934Z,27.97
2019-01-23T04:08:52.390Z,29.27
2019-01-23T04:09:27.921Z,28.50
2019-01-23T04:10:03.581Z,30.07
2019-01-23T04:10:39.066Z,30.10
2019-01-23T04:11:14.566Z,29.27
2019-01-23T04:11:50.456Z,30.33
2019-01-23T04:12:25.894Z,29.03
2019-01-23T04:13:01.382Z,28.47
2019-01-23T04:13:37.065Z,26.83
2019-01-23T04:14:13.210Z,29.83
2019-01-23T04:14:48.662Z,29.17
2019-01-23T04:15:24.110Z,30.13
2019-01-23T04:15:59.809Z,29.30
2019-01-23T04:16:35.623Z,28.90
2019-01-23T04:17:11.364Z,29.73
2019-01-23T04:17:47.168Z,28.63
2019-01-23T04:18:22.619Z,29.73
2019-01-23T04:18:58.044Z,29.57
2019-01-23T04:19:33.469Z,28.73
2019-01-23T04:20:12.293Z,28.00
2019-01-23T04:20:47.774Z,30.67
2019-01-23T04:21:23.496Z,28.43
2019-01-23T04:21:58.928Z,29.40
2019-01-23T04:22:34.376Z,29.67
2019-01-23T04:23:10.179Z,28.63
2019-01-23T04:23:45.668Z,29.43
2019-01-23T04:24:21.097Z,29.07
2019-01-23T04:24:56.776Z,30.47
2019-01-23T04:25:32.218Z,29.30
2019-01-23T04:26:07.716Z,28.17
2019-01-23T04:26:43.492Z,30.30
2019-01-23T04:27:19.511Z,30.10
2019-01-23T04:27:55.291Z,29.63
2019-01-23T04:28:30.736Z,29.90
2019-01-23T04:29:06.235Z,29.27
2019-01-23T04:29:41.822Z,28.27
2019-01-23T04:30:19.831Z,28.35
2019-01-23T04:30:55.579Z,29.10
2019-01-23T04:31:31.094Z,28.83
2019-01-23T04:32:06.853Z,28.45
2019-01-23T04:32:42.466Z,28.57
2019-01-23T04:33:17.944Z,29.10
2019-01-23T04:33:53.675Z,29.03
2019-01-23T04:34:29.125Z,29.07
2019-01-23T04:35:05.313Z,27.23
2019-01-23T04:35:40.827Z,28.73
2019-01-23T04:36:16.362Z,28.80
2019-01-23T04:36:52.052Z,28.17
2019-01-23T04:37:27.779Z,29.85
2019-01-23T04:38:03.266Z,30.70
2019-01-23T04:38:39.050Z,29.80
2019-01-23T04:39:14.771Z,29.00
2019-01-23T04:39:50.645Z,30.90
2019-01-23T04:40:26.357Z,28.33
2019-01-23T04:41:01.790Z,29.47
2019-01-23T04:41:37.343Z,29.43
2019-01-23T04:42:12.929Z,28.23
2019-01-23T04:42:48.398Z,28.83
2019-01-23T04:43:24.539Z,28.20
2019-01-23T04:44:00.273Z,28.42
2019-01-23T04:44:36.270Z,28.90
2019-01-23T04:45:12.827Z,29.50
2019-01-23T04:45:48.540Z,27.57
2019-01-23T04:46:23.972Z,28.47
2019-01-23T04:46:59.399Z,28.17
2019-01-23T04:47:34.985Z,27.83
2019-01-23T04:48:10.835Z,28.77
2019-01-23T04:48:46.696Z,28.77
2019-01-23T04:49:22.115Z,27.77
2019-01-23T04:49:57.557Z,29.67
2019-01-23T04:50:34.630Z,29.73
2019-01-23T04:51:34.984Z,30.00
2019-01-23T04:52:15.970Z,29.90
2019-01-23T04:53:12.317Z,30.20
2019-01-23T04:53:49.039Z,30.10
2019-01-23T04:54:24.566Z,30.73
2019-01-23T04:55:00.262Z,30.37
2019-01-23T04:55:37.845Z,31.00
2019-01-23T04:56:13.839Z,30.45
2019-01-23T04:56:49.573Z,32.83
2019-01-23T04:57:25.005Z,32.57
2019-01-23T04:58:00.469Z,32.50
2019-01-23T04:58:36.540Z,33.90
2019-01-23T04:59:12.309Z,33.88
2019-01-23T04:59:48.069Z,34.63
2019-01-23T05:00:25.272Z,34.97
2019-01-23T05:01:01.051Z,34.53
2019-01-23T05:01:36.524Z,35.10
2019-01-23T05:02:12.058Z,34.50
2019-01-23T05:02:47.797Z,35.23
2019-01-23T05:03:23.578Z,34.23
2019-01-23T05:03:59.033Z,34.90
2019-01-23T05:04:34.782Z,33.95
2019-01-23T05:05:10.647Z,36.00
2019-01-23T05:05:46.414Z,34.30
2019-01-23T05:06:22.148Z,34.55
2019-01-23T05:06:57.864Z,35.03
2019-01-23T05:07:33.646Z,34.20
2019-01-23T05:08:09.422Z,35.50
2019-01-23T05:08:44.891Z,34.10
2019-01-23T05:09:20.894Z,34.53
2019-01-23T05:09:56.630Z,36.33
2019-01-23T05:10:32.346Z,35.80
2019-01-23T05:11:07.837Z,35.50
2019-01-23T05:11:43.313Z,37.57
2019-01-23T05:12:18.789Z,36.73
2019-01-23T05:12:54.498Z,37.00
2019-01-23T05:13:30.222Z,37.63
2019-01-23T05:14:06.061Z,36.10
2019-01-23T05:14:41.839Z,37.28
2019-01-23T05:15:17.593Z,35.97
2019-01-23T05:15:53.087Z,34.77
2019-01-23T05:16:28.794Z,36.00
2019-01-23T05:17:04.493Z,33.93
2019-01-23T05:17:39.944Z,34.27
2019-01-23T05:18:15.703Z,32.93
2019-01-23T05:18:51.161Z,33.23
2019-01-23T05:19:26.922Z,33.60
2019-01-23T05:20:02.347Z,32.97
2019-01-23T05:20:37.866Z,34.03
2019-01-23T05:21:13.985Z,32.53
2019-01-23T05:21:49.619Z,33.13
2019-01-23T05:22:25.067Z,32.43
2019-01-23T05:23:00.548Z,31.07
2019-01-23T05:23:36.075Z,30.87
2019-01-23T05:24:11.621Z,30.77
2019-01-23T05:24:47.084Z,34.40
2019-01-23T05:25:22.878Z,30.83
2019-01-23T05:25:58.306Z,31.40
2019-01-23T05:26:34.772Z,31.27
2019-01-23T05:27:10.340Z,30.30
2019-01-23T05:27:45.825Z,30.57
2019-01-23T05:28:21.552Z,30.47
2019-01-23T05:28:56.993Z,30.30
2019-01-23T05:29:32.425Z,28.40
2019-01-23T05:30:11.872Z,29.23
2019-01-23T05:30:47.442Z,28.43
2019-01-23T05:31:22.857Z,28.87
2019-01-23T05:31:58.315Z,29.50
2019-01-23T05:32:34.012Z,30.07
2019-01-23T05:33:09.544Z,30.23
2019-01-23T05:33:45.101Z,30.10
2019-01-23T05:34:20.542Z,29.37
2019-01-23T05:34:56.226Z,29.83
2019-01-23T05:35:31.674Z,28.80
2019-01-23T05:36:07.326Z,31.23
2019-01-23T05:36:42.768Z,29.23
2019-01-23T05:37:18.729Z,28.17
2019-01-23T05:37:54.164Z,29.73
2019-01-23T05:38:29.766Z,30.03
2019-01-23T05:39:08.282Z,30.33
2019-01-23T05:39:44.944Z,30.20
2019-01-23T05:40:20.501Z,31.70
2019-01-23T05:40:56.255Z,29.33
2019-01-23T05:41:32.006Z,28.80
2019-01-23T05:42:07.733Z,29.53
2019-01-23T05:42:43.185Z,30.03
2019-01-23T05:43:18.643Z,29.80
2019-01-23T05:43:54.076Z,29.20
2019-01-23T05:44:29.584Z,28.90
2019-01-23T05:45:05.928Z,30.27
2019-01-23T05:45:41.693Z,30.20
2019-01-23T05:46:17.157Z,29.33
2019-01-23T05:46:52.586Z,29.20
2019-01-23T05:47:28.017Z,30.10
2019-01-23T05:48:03.449Z,30.13
2019-01-23T05:48:39.031Z,30.97
2019-01-23T05:49:14.515Z,28.20
2019-01-23T05:49:49.953Z,28.60
2019-01-23T05:50:25.377Z,29.50
2019-01-23T05:51:01.104Z,30.10
2019-01-23T05:51:36.611Z,30.07
2019-01-23T05:52:12.460Z,30.47
2019-01-23T05:52:49.021Z,30.67
2019-01-23T05:53:24.518Z,29.90
2019-01-23T05:53:59.984Z,29.10
2019-01-23T05:54:35.449Z,30.30
2019-01-23T05:55:12.243Z,29.90
2019-01-23T05:55:47.718Z,29.87
2019-01-23T05:56:23.169Z,28.90
2019-01-23T05:56:58.969Z,29.60
2019-01-23T05:57:34.435Z,30.03
2019-01-23T05:58:11.960Z,29.87
2019-01-23T05:58:47.747Z,30.87
2019-01-23T05:59:23.182Z,31.13
2019-01-23T06:00:02.382Z,31.23
2019-01-23T06:00:36.066Z,30.07
2019-01-23T06:01:11.853Z,29.53
2019-01-23T06:01:47.642Z,30.33
2019-01-23T06:02:23.072Z,29.53
2019-01-23T06:02:58.512Z,30.73
2019-01-23T06:03:34.153Z,30.53
2019-01-23T06:04:10.050Z,31.47
2019-01-23T06:04:46.464Z,30.80
2019-01-23T06:05:22.311Z,30.05
2019-01-23T06:05:58.085Z,30.05
2019-01-23T06:06:33.804Z,30.90
2019-01-23T06:07:09.928Z,31.20
2019-01-23T06:07:45.723Z,30.30
2019-01-23T06:08:21.748Z,31.57
2019-01-23T06:08:57.232Z,32.03
2019-01-23T06:09:32.977Z,29.90
2019-01-23T06:10:08.857Z,31.70
2019-01-23T06:10:44.406Z,30.57
2019-01-23T06:11:20.816Z,30.57
2019-01-23T06:11:56.608Z,28.77
2019-01-23T06:12:32.057Z,29.73
2019-01-23T06:13:07.538Z,30.73
2019-01-23T06:13:43.069Z,29.60
2019-01-23T06:14:18.594Z,29.40
2019-01-23T06:14:54.326Z,31.15
2019-01-23T06:15:29.779Z,28.83
2019-01-23T06:16:05.268Z,30.43
2019-01-23T06:16:40.772Z,30.23
2019-01-23T06:17:16.268Z,29.07
2019-01-23T06:17:51.710Z,30.70
2019-01-23T06:18:27.142Z,29.77
2019-01-23T06:19:02.614Z,31.17
2019-01-23T06:19:38.154Z,29.43
2019-01-23T06:20:16.245Z,28.57
2019-01-23T06:20:51.706Z,29.63
2019-01-23T06:21:27.144Z,29.80
2019-01-23T06:22:02.904Z,30.77
2019-01-23T06:22:38.489Z,30.63
2019-01-23T06:23:13.981Z,30.17
2019-01-23T06:23:49.436Z,30.40
2019-01-23T06:24:24.902Z,31.00
2019-01-23T06:25:00.351Z,29.70
2019-01-23T06:25:35.840Z,29.70
2019-01-23T06:26:11.340Z,31.20
2019-01-23T06:26:47.127Z,30.88
2019-01-23T06:27:22.573Z,30.13
2019-01-23T06:27:58.584Z,29.23
2019-01-23T06:28:34.370Z,30.83
2019-01-23T06:29:09.994Z,30.70
2019-01-23T06:29:45.482Z,30.00
2019-01-23T06:30:25.657Z,30.43
2019-01-23T06:31:01.098Z,30.53
2019-01-23T06:31:37.354Z,29.23
2019-01-23T06:32:12.894Z,30.97
2019-01-23T06:32:48.375Z,30.27
2019-01-23T06:33:24.139Z,31.80
2019-01-23T06:33:59.846Z,30.47
2019-01-23T06:34:35.309Z,31.53
2019-01-23T06:35:10.814Z,31.53
2019-01-23T06:35:46.597Z,30.60
2019-01-23T06:36:22.310Z,32.60
2019-01-23T06:36:58.062Z,30.17
2019-01-23T06:37:33.488Z,30.80
2019-01-23T06:38:09.000Z,30.40
2019-01-23T06:38:44.594Z,29.93
2019-01-23T06:39:20.064Z,31.33
2019-01-23T06:39:55.770Z,30.27
2019-01-23T06:40:31.759Z,30.00
2019-01-23T06:41:07.237Z,31.73
2019-01-23T06:41:42.847Z,29.77
2019-01-23T06:42:18.372Z,30.43
2019-01-23T06:42:54.117Z,29.87
2019-01-23T06:43:29.851Z,30.50
2019-01-23T06:44:05.854Z,29.77
2019-01-23T06:44:41.748Z,31.00
2019-01-23T06:45:17.767Z,30.43
2019-01-23T06:45:53.468Z,32.30
2019-01-23T06:46:29.366Z,32.03
2019-01-23T06:47:04.815Z,31.97
2019-01-23T06:47:40.679Z,30.47
2019-01-23T06:48:16.173Z,30.87
2019-01-23T06:48:51.660Z,31.90
2019-01-23T06:49:30.014Z,30.40
2019-01-23T06:50:05.674Z,31.57
2019-01-23T06:50:41.460Z,31.30
2019-01-23T06:51:16.923Z,30.77
2019-01-23T06:51:52.353Z,30.67
2019-01-23T06:52:27.791Z,31.23
2019-01-23T06:53:03.244Z,32.13
2019-01-23T06:53:39.063Z,30.87
2019-01-23T06:54:14.621Z,32.47
2019-01-23T06:54:50.080Z,30.57
2019-01-23T06:55:25.802Z,32.63
2019-01-23T06:56:01.357Z,31.27
2019-01-23T06:56:36.976Z,32.97
2019-01-23T06:57:12.685Z,32.00
2019-01-23T06:57:48.299Z,31.40
2019-01-23T06:58:24.073Z,31.13
2019-01-23T06:58:59.837Z,32.13
2019-01-23T06:59:35.406Z,34.03
2019-01-23T07:00:17.445Z,33.13
2019-01-23T07:00:53.015Z,29.27
2019-01-23T07:01:28.447Z,31.07
2019-01-23T07:02:03.879Z,31.53
2019-01-23T07:02:39.799Z,31.00
2019-01-23T07:03:15.275Z,32.53
2019-01-23T07:03:50.719Z,31.23
2019-01-23T07:04:26.427Z,31.30
2019-01-23T07:05:01.902Z,30.70
2019-01-23T07:05:37.466Z,30.77
2019-01-23T07:06:13.398Z,32.70
2019-01-23T07:06:49.121Z,31.57
2019-01-23T07:07:24.605Z,31.87
2019-01-23T07:08:00.384Z,32.30
2019-01-23T07:08:35.872Z,31.40
2019-01-23T07:09:11.475Z,31.00
2019-01-23T07:09:47.009Z,33.93
2019-01-23T07:10:24.757Z,30.90
2019-01-23T07:11:00.291Z,31.00
2019-01-23T07:11:35.734Z,30.93
2019-01-23T07:12:11.539Z,31.57
2019-01-23T07:12:47.312Z,31.47
2019-01-23T07:13:22.743Z,33.47
2019-01-23T07:13:58.205Z,31.70
2019-01-23T07:14:34.050Z,32.43
2019-01-23T07:15:10.768Z,32.57
2019-01-23T07:15:46.349Z,32.67
2019-01-23T07:16:22.081Z,30.47
2019-01-23T07:16:57.768Z,32.10
2019-01-23T07:17:33.290Z,32.37
2019-01-23T07:18:08.782Z,30.23
2019-01-23T07:18:44.292Z,31.83
2019-01-23T07:19:19.762Z,30.73
2019-01-23T07:19:55.217Z,31.87
2019-01-23T07:20:30.654Z,31.37
2019-01-23T07:21:06.102Z,31.80
2019-01-23T07:21:41.562Z,30.90
2019-01-23T07:22:17.309Z,30.63
2019-01-23T07:22:53.030Z,31.00
2019-01-23T07:23:28.743Z,33.30
2019-01-23T07:24:04.562Z,31.27
2019-01-23T07:24:40.122Z,31.13
2019-01-23T07:25:15.820Z,30.43
2019-01-23T07:25:51.507Z,32.10
2019-01-23T07:26:27.014Z,31.67
2019-01-23T07:27:02.480Z,31.43
2019-01-23T07:27:37.976Z,32.23
2019-01-23T07:28:13.513Z,32.40
2019-01-23T07:28:49.519Z,31.20
2019-01-23T07:29:24.897Z,31.10
2019-01-23T07:30:00.326Z,32.07
2019-01-23T07:30:38.639Z,29.90
2019-01-23T07:31:14.190Z,32.43
2019-01-23T07:31:49.894Z,32.53
2019-01-23T07:32:25.623Z,32.35
2019-01-23T07:33:01.098Z,31.07
2019-01-23T07:33:36.552Z,31.43
2019-01-23T07:34:12.103Z,29.87
2019-01-23T07:34:47.559Z,31.27
2019-01-23T07:35:23.332Z,32.47
2019-01-23T07:35:58.760Z,32.87
2019-01-23T07:36:34.215Z,30.90
2019-01-23T07:37:09.641Z,32.53
2019-01-23T07:37:45.065Z,31.90
2019-01-23T07:38:20.911Z,31.07
2019-01-23T07:38:56.352Z,30.23
2019-01-23T07:39:32.128Z,32.70
2019-01-23T07:40:08.270Z,31.53
2019-01-23T07:40:43.974Z,32.10
2019-01-23T07:41:19.636Z,31.80